Time;durP1;ratioP1;P1;durP2;ratioP2;P2;SDS_P1;SDS_P2;PMS_P1;PMS_P2;Temp;Humidity;BMP_temperature;BMP_pressure;BME280_temperature;BME280_humidity;BME280_pressure;Samples;Min_cycle;Max_cycle;Signal;HPM_P1;HPM_P2
2021/07/22 00:06:39;;;;;;;8.7;6;;;;;;;17.05;100;99100.45;;;;
2021/07/22 00:16:39;;;;;;;15.1;7.1;;;;;;;17.19;100;99103.66;;;;
2021/07/22 00:26:39;;;;;;;11.4;6.5;;;;;;;17.19;100;99113.75;;;;
2021/07/22 00:36:38;;;;;;;11;6.9;;;;;;;17.14;100;99100.36;;;;
2021/07/22 00:46:38;;;;;;;8.6;5.6;;;;;;;17.02;100;99106.57;;;;
2021/07/22 00:56:38;;;;;;;8.3;5.3;;;;;;;16.84;100;99100.51;;;;
2021/07/22 01:06:37;;;;;;;8.6;6.2;;;;;;;16.65;100;99094.78;;;;
2021/07/22 01:16:37;;;;;;;10.3;6.9;;;;;;;16.66;100;99090.91;;;;
2021/07/22 01:26:36;;;;;;;10.9;7.2;;;;;;;16.63;100;99101.67;;;;
2021/07/22 01:36:36;;;;;;;16.9;8.2;;;;;;;16.51;100;99102.41;;;;
2021/07/22 01:46:36;;;;;;;14.6;7.9;;;;;;;16.5;100;99098.88;;;;
2021/07/22 01:56:35;;;;;;;8.5;6.5;;;;;;;16.5;100;99096.16;;;;
2021/07/22 02:06:35;;;;;;;14.2;7.5;;;;;;;16.42;100;99096.22;;;;
2021/07/22 02:16:35;;;;;;;10;7.3;;;;;;;16.42;100;99096.22;;;;
2021/07/22 02:26:34;;;;;;;10.8;7.5;;;;;;;16.29;100;99100.02;;;;
2021/07/22 02:36:34;;;;;;;14.9;7.7;;;;;;;16.44;100;99105.67;;;;
2021/07/22 02:46:35;;;;;;;9.2;6.5;;;;;;;16.38;100;99114.37;;;;
2021/07/22 02:56:33;;;;;;;14.9;7.7;;;;;;;16.34;100;99121.59;;;;
2021/07/22 03:06:33;;;;;;;17;7.4;;;;;;;16.17;100;99122.52;;;;
2021/07/22 03:16:32;;;;;;;10.5;7.2;;;;;;;16.3;100;99116.02;;;;
2021/07/22 03:26:32;;;;;;;9;7.4;;;;;;;16.32;100;99118.39;;;;
2021/07/22 03:36:33;;;;;;;15.2;8;;;;;;;16.33;100;99117.27;;;;
2021/07/22 03:46:34;;;;;;;10;6.6;;;;;;;16.49;100;99116.33;;;;
2021/07/22 03:56:33;;;;;;;12.5;7.5;;;;;;;16.57;100;99120.95;;;;
2021/07/22 04:06:31;;;;;;;11;6.7;;;;;;;16.71;100;99122.58;;;;
2021/07/22 04:16:30;;;;;;;14.8;5.6;;;;;;;16.84;100;99118.77;;;;
2021/07/22 04:26:30;;;;;;;9.3;7;;;;;;;16.81;100;99113.99;;;;
2021/07/22 04:36:30;;;;;;;7.5;6.2;;;;;;;16.82;100;99127.28;;;;
2021/07/22 04:46:29;;;;;;;13.1;6.8;;;;;;;16.86;100;99130.93;;;;
2021/07/22 04:56:29;;;;;;;10.4;7.2;;;;;;;17.2;100;99128.97;;;;
2021/07/22 05:06:29;;;;;;;8.6;6.6;;;;;;;17.44;100;99121.63;;;;
2021/07/22 05:16:29;;;;;;;13.4;7.9;;;;;;;17.98;100;99135.05;;;;
2021/07/22 05:26:29;;;;;;;9.7;7.2;;;;;;;18.24;100;99149.12;;;;
2021/07/22 05:36:28;;;;;;;17.1;8.2;;;;;;;18.64;100;99142.91;;;;
2021/07/22 05:46:30;;;;;;;12.8;7.8;;;;;;;18.8;100;99141.81;;;;
2021/07/22 05:56:28;;;;;;;20.6;9.9;;;;;;;19.19;100;99147.55;;;;
2021/07/22 06:06:28;;;;;;;13.2;9.9;;;;;;;19.43;100;99144.69;;;;
2021/07/22 06:16:30;;;;;;;13.8;8;;;;;;;19.97;100;99142.09;;;;
2021/07/22 06:26:28;;;;;;;12;6.5;;;;;;;20.13;100;99153.02;;;;
2021/07/22 06:36:28;;;;;;;14.1;8.7;;;;;;;20.44;100;99140.03;;;;
2021/07/22 06:46:28;;;;;;;16.2;8;;;;;;;20.68;100;99147.2;;;;
2021/07/22 06:56:29;;;;;;;16.6;8;;;;;;;20.33;100;99149.19;;;;
2021/07/22 07:06:29;;;;;;;13.1;9.5;;;;;;;20.57;100;99146.19;;;;
2021/07/22 07:16:29;;;;;;;13.5;8.3;;;;;;;21.19;100;99147.83;;;;
2021/07/22 07:26:29;;;;;;;15.4;9.1;;;;;;;21.13;100;99149.29;;;;
2021/07/22 07:36:30;;;;;;;13;8.9;;;;;;;21.29;100;99136.26;;;;
2021/07/22 07:46:30;;;;;;;12.3;7.8;;;;;;;21.21;100;99131.03;;;;
2021/07/22 07:56:30;;;;;;;10.2;7;;;;;;;21.54;100;99131.2;;;;
2021/07/22 08:06:31;;;;;;;14.7;7.3;;;;;;;21.76;100;99135.89;;;;
2021/07/22 08:16:31;;;;;;;12.4;8;;;;;;;22.03;100;99132.02;;;;
2021/07/22 08:26:31;;;;;;;11.5;8.7;;;;;;;22.19;96.63184;99129.09;;;;
2021/07/22 08:36:33;;;;;;;15;10;;;;;;;22.36;97.84375;99127.75;;;;
2021/07/22 08:46:35;;;;;;;12.4;8.6;;;;;;;23.27;91.66504;99110.75;;;;
2021/07/22 08:56:34;;;;;;;11;5.4;;;;;;;23.6;84.43457;99112.66;;;;
2021/07/22 09:06:33;;;;;;;8.8;5.5;;;;;;;23.05;85.88379;99110.55;;;;
2021/07/22 09:16:37;;;;;;;9.3;7;;;;;;;22.93;90.32617;99108.08;;;;
2021/07/22 09:26:34;;;;;;;11.2;6.1;;;;;;;22.64;90.99512;99111.63;;;;
2021/07/22 09:36:35;;;;;;;10;6.2;;;;;;;22.44;91.9707;99111;;;;
2021/07/22 09:46:41;;;;;;;9.7;6;;;;;;;22.87;89.25977;99106.81;;;;
2021/07/22 09:56:36;;;;;;;10.8;7;;;;;;;22.7;93.60352;99101.14;;;;
2021/07/22 10:06:36;;;;;;;11.9;5.4;;;;;;;22.86;88.86719;99102.5;;;;
2021/07/22 10:16:37;;;;;;;10.4;5.7;;;;;;;22.85;91.5332;99091.87;;;;
2021/07/22 10:26:40;;;;;;;11;5.4;;;;;;;23.11;85.5;99093.72;;;;
2021/07/22 10:36:40;;;;;;;10.2;3.6;;;;;;;23.08;87.3125;99087.02;;;;
2021/07/22 10:46:55;;;;;;;8.4;5;;;;;;;23.17;87.87402;99090.23;;;;
2021/07/22 10:56:39;;;;;;;7;4.3;;;;;;;22.99;90.05957;99097.52;;;;
2021/07/22 11:06:40;;;;;;;8.2;4.6;;;;;;;22.9;91.09375;99092.34;;;;
2021/07/22 11:16:40;;;;;;;7;3.5;;;;;;;23.06;90.91797;99090.14;;;;
2021/07/22 11:26:41;;;;;;;9.6;4.2;;;;;;;23.38;88.38867;99089.64;;;;
2021/07/22 11:36:41;;;;;;;9.1;4;;;;;;;23.6;85.96484;99088.69;;;;
2021/07/22 11:46:42;;;;;;;8.9;4.4;;;;;;;24.03;83.33008;99081.48;;;;
2021/07/22 11:56:42;;;;;;;11.9;4.3;;;;;;;23.83;83.16602;99078.23;;;;
2021/07/22 12:06:43;;;;;;;9.1;5.3;;;;;;;23.82;84.68359;99062.08;;;;
2021/07/22 12:16:44;;;;;;;12;5.7;;;;;;;24.35;82.91309;99056.89;;;;
2021/07/22 12:26:44;;;;;;;7.9;4.6;;;;;;;24.3;87.52539;99054.49;;;;
2021/07/22 12:36:52;;;;;;;8;4.5;;;;;;;24.74;84.8457;99044.03;;;;
2021/07/22 12:46:46;;;;;;;7.2;4.3;;;;;;;24.82;78.7627;99051.13;;;;
2021/07/22 12:56:48;;;;;;;8.5;4.1;;;;;;;25.36;77.53809;99050.04;;;;
2021/07/22 13:06:50;;;;;;;4.9;3.7;;;;;;;25.53;73.32813;99040.2;;;;
2021/07/22 13:16:48;;;;;;;7.8;4.5;;;;;;;26.23;72.00195;99030.2;;;;
2021/07/22 13:26:49;;;;;;;8.1;4.8;;;;;;;26;72.21094;99019.58;;;;
2021/07/22 13:36:53;;;;;;;6.2;3.1;;;;;;;26;70.30273;99011.28;;;;
2021/07/22 13:46:51;;;;;;;7.2;3.9;;;;;;;24.87;71.92578;98998.39;;;;
2021/07/22 13:56:52;;;;;;;9.3;3.2;;;;;;;25.43;72.94043;98997.6;;;;
2021/07/22 14:06:53;;;;;;;7.8;3.9;;;;;;;25.76;74.19434;98992.81;;;;
2021/07/22 14:16:54;;;;;;;6.6;3.8;;;;;;;26.14;72.32715;98991.1;;;;
2021/07/22 14:26:56;;;;;;;7.7;3.1;;;;;;;25.61;72.79102;98980.25;;;;
2021/07/22 14:36:55;;;;;;;9.9;4.4;;;;;;;24.94;78.02637;98972.78;;;;
2021/07/22 14:46:56;;;;;;;8.6;4.8;;;;;;;24.72;80.49219;98963.67;;;;
2021/07/22 14:56:57;;;;;;;8.6;4.3;;;;;;;24.81;76.95605;98953.06;;;;
2021/07/22 15:06:58;;;;;;;9.9;4.9;;;;;;;25.08;74.59668;98952.69;;;;
2021/07/22 15:16:58;;;;;;;9.6;4.2;;;;;;;24.91;72.33008;98944.03;;;;
2021/07/22 15:26:59;;;;;;;6.8;4;;;;;;;25.05;74.23047;98940.48;;;;
2021/07/22 15:37:00;;;;;;;6.6;4.1;;;;;;;25.17;75.02148;98931.78;;;;
2021/07/22 15:47:01;;;;;;;8;4.9;;;;;;;24.97;75.7002;98925.91;;;;
2021/07/22 15:57:02;;;;;;;9.9;4;;;;;;;24.7;79.66309;98919.18;;;;
2021/07/22 16:07:02;;;;;;;7.6;4.5;;;;;;;24.36;80.58984;98917.96;;;;
2021/07/22 16:17:03;;;;;;;14;9.4;;;;;;;24.05;83.02051;98905.66;;;;
2021/07/22 16:27:04;;;;;;;10.1;6.8;;;;;;;23.78;80.74316;98899.65;;;;
2021/07/22 16:37:04;;;;;;;7.9;5.2;;;;;;;23.38;83.72168;98895.12;;;;
2021/07/22 16:47:05;;;;;;;12.4;9.8;;;;;;;23.12;85.9209;98892.59;;;;
2021/07/22 16:57:06;;;;;;;15.5;11.9;;;;;;;22.88;88.43164;98883;;;;
2021/07/22 17:07:06;;;;;;;14.5;10.3;;;;;;;22.77;88.89453;98884.11;;;;
2021/07/22 17:17:06;;;;;;;14.1;10.7;;;;;;;22.55;89.9375;98874.87;;;;
2021/07/22 17:27:07;;;;;;;10.8;8;;;;;;;22.49;92.1875;98873.65;;;;
2021/07/22 17:37:07;;;;;;;14.7;10.4;;;;;;;22.34;94.16406;98867.23;;;;
2021/07/22 17:47:08;;;;;;;10.1;6.9;;;;;;;21.91;96.80273;98868.74;;;;
2021/07/22 17:57:08;;;;;;;9.9;5.2;;;;;;;21.72;97.5791;98874.39;;;;
2021/07/22 18:07:08;;;;;;;9.8;5.7;;;;;;;21.48;100;98866.64;;;;
2021/07/22 18:17:09;;;;;;;19.4;5.5;;;;;;;21.06;100;98859.39;;;;
2021/07/22 18:27:09;;;;;;;11.4;6.3;;;;;;;20.59;100;98859.84;;;;
2021/07/22 18:37:09;;;;;;;11.2;7.4;;;;;;;20.36;100;98858.27;;;;
2021/07/22 18:47:09;;;;;;;10.5;6.6;;;;;;;20.09;100;98863.66;;;;
2021/07/22 18:57:10;;;;;;;11;6.3;;;;;;;19.76;100;98874.33;;;;
2021/07/22 19:07:10;;;;;;;10.6;6.6;;;;;;;19.49;100;98875.34;;;;
2021/07/22 19:17:10;;;;;;;11.8;8;;;;;;;19.31;100;98874.94;;;;
2021/07/22 19:27:10;;;;;;;11.8;7.9;;;;;;;19.01;100;98884.81;;;;
2021/07/22 19:37:10;;;;;;;14.4;8.1;;;;;;;18.83;100;98892.59;;;;
2021/07/22 19:47:10;;;;;;;21.8;9.3;;;;;;;18.6;100;98892.41;;;;
2021/07/22 19:57:10;;;;;;;21.9;12.6;;;;;;;18.43;100;98886.5;;;;
2021/07/22 20:07:09;;;;;;;17.4;13.5;;;;;;;18.18;100;98883.13;;;;
2021/07/22 20:17:09;;;;;;;24.5;9.8;;;;;;;17.9;100;98887.82;;;;
2021/07/22 20:27:09;;;;;;;23.7;12.2;;;;;;;17.63;100;98897.59;;;;
2021/07/22 20:37:09;;;;;;;14.9;8.4;;;;;;;17.46;100;98889.64;;;;
2021/07/22 20:47:09;;;;;;;15.5;8.7;;;;;;;17.33;100;98891.61;;;;
2021/07/22 20:57:11;;;;;;;9;6.5;;;;;;;17.29;100;98900.81;;;;
2021/07/22 21:07:08;;;;;;;10.1;7;;;;;;;17.19;100;98901.28;;;;
2021/07/22 21:17:08;;;;;;;24.3;15.9;;;;;;;17.13;100;98891.77;;;;
2021/07/22 21:27:08;;;;;;;16.5;10.4;;;;;;;16.96;100;98890.09;;;;
2021/07/22 21:37:07;;;;;;;13.7;8.3;;;;;;;16.92;100;98881.81;;;;
2021/07/22 21:47:07;;;;;;;13.3;8.6;;;;;;;16.75;100;98884.77;;;;
2021/07/22 21:57:08;;;;;;;14.2;7.9;;;;;;;16.74;100;98880.45;;;;
2021/07/22 22:07:07;;;;;;;9.4;7.3;;;;;;;16.75;100;98873.08;;;;
2021/07/22 22:17:06;;;;;;;12;7.7;;;;;;;16.71;100;98870.25;;;;
2021/07/22 22:27:06;;;;;;;8.7;7.6;;;;;;;16.71;100;98869.45;;;;
2021/07/22 22:37:06;;;;;;;13.2;8.1;;;;;;;16.73;100;98873.41;;;;
2021/07/22 22:47:05;;;;;;;8.5;6.8;;;;;;;16.65;100;98874.34;;;;
2021/07/22 22:57:08;;;;;;;9.3;6.5;;;;;;;16.6;100;98869.91;;;;
2021/07/22 23:07:05;;;;;;;15.4;8.2;;;;;;;16.42;100;98879.38;;;;
2021/07/22 23:17:04;;;;;;;10.2;6.3;;;;;;;16.51;100;98871.92;;;;
2021/07/22 23:27:04;;;;;;;11.1;7.5;;;;;;;16.43;100;98874.73;;;;
2021/07/22 23:37:03;;;;;;;12.7;7.9;;;;;;;16.35;100;98867.46;;;;
2021/07/22 23:47:03;;;;;;;11.8;7.6;;;;;;;16.4;100;98869.97;;;;
2021/07/22 23:57:03;;;;;;;11.5;6.5;;;;;;;16.22;100;98861.22;;;;
